createdAt,value
2023-01-31T00:00:02.273Z,1014.39
2023-01-31T00:01:02.318Z,1014.40
2023-01-31T00:02:03.254Z,1014.38
2023-01-31T00:03:03.217Z,1014.41
2023-01-31T00:04:03.190Z,1014.42
2023-01-31T00:05:03.311Z,1014.44
2023-01-31T00:06:03.096Z,1014.41
2023-01-31T00:07:02.263Z,1014.41
2023-01-31T00:08:02.197Z,1014.39
2023-01-31T00:09:02.398Z,1014.43
2023-01-31T00:10:02.350Z,1014.36
2023-01-31T00:11:02.493Z,1014.40
2023-01-31T00:12:02.652Z,1014.44
2023-01-31T00:13:02.292Z,1014.42
2023-01-31T00:14:02.555Z,1014.50
2023-01-31T00:15:02.298Z,1014.42
2023-01-31T00:16:02.320Z,1014.40
2023-01-31T00:17:03.343Z,1014.42
2023-01-31T00:18:02.731Z,1014.45
2023-01-31T00:19:03.177Z,1014.53
2023-01-31T00:20:03.213Z,1014.53
2023-01-31T00:21:02.729Z,1014.50
2023-01-31T00:22:02.722Z,1014.58
2023-01-31T00:23:02.456Z,1014.57
2023-01-31T00:24:02.688Z,1014.49
2023-01-31T00:25:02.334Z,1014.50
2023-01-31T00:26:02.514Z,1014.51
2023-01-31T00:27:02.675Z,1014.46
2023-01-31T00:28:02.434Z,1014.44
2023-01-31T00:29:02.682Z,1014.48
2023-01-31T00:30:02.950Z,1014.51
2023-01-31T00:31:03.043Z,1014.52
2023-01-31T00:32:02.918Z,1014.45
2023-01-31T00:33:03.274Z,1014.48
2023-01-31T00:34:02.882Z,1014.48
2023-01-31T00:35:02.693Z,1014.53
2023-01-31T00:36:03.264Z,1014.48
2023-01-31T00:37:03.232Z,1014.49
2023-01-31T00:38:03.220Z,1014.47
2023-01-31T00:39:02.841Z,1014.40
2023-01-31T00:40:03.169Z,1014.44
2023-01-31T00:41:03.486Z,1014.43
2023-01-31T00:42:02.230Z,1014.45
2023-01-31T00:43:02.587Z,1014.47
2023-01-31T00:44:02.139Z,1014.47
2023-01-31T00:45:02.415Z,1014.44
2023-01-31T00:46:02.195Z,1014.52
2023-01-31T00:47:02.633Z,1014.50
2023-01-31T00:48:02.534Z,1014.46
2023-01-31T00:49:02.618Z,1014.54
2023-01-31T00:50:02.459Z,1014.53
2023-01-31T00:51:02.226Z,1014.48
2023-01-31T00:52:02.251Z,1014.47
2023-01-31T00:53:02.505Z,1014.47
2023-01-31T00:54:02.566Z,1014.45
2023-01-31T00:55:02.825Z,1014.44
2023-01-31T00:56:02.259Z,1014.41
2023-01-31T00:57:02.795Z,1014.41
2023-01-31T00:58:02.851Z,1014.33
2023-01-31T00:59:02.779Z,1014.41
2023-01-31T01:00:02.864Z,1014.39
2023-01-31T01:01:03.331Z,1014.45
2023-01-31T01:02:02.146Z,1014.48
2023-01-31T01:03:02.467Z,1014.54
2023-01-31T01:04:02.252Z,1014.48
2023-01-31T01:05:02.417Z,1014.48
2023-01-31T01:06:01.985Z,1014.47
2023-01-31T01:07:01.989Z,1014.48
2023-01-31T01:08:02.316Z,1014.49
2023-01-31T01:09:02.373Z,1014.44
2023-01-31T01:10:01.963Z,1014.41
2023-01-31T01:11:01.977Z,1014.40
2023-01-31T01:12:02.354Z,1014.38
2023-01-31T01:13:02.613Z,1014.38
2023-01-31T01:14:02.167Z,1014.35
2023-01-31T01:15:02.130Z,1014.32
2023-01-31T01:16:02.411Z,1014.40
2023-01-31T01:17:01.709Z,1014.48
2023-01-31T01:18:01.974Z,1014.45
2023-01-31T01:19:01.733Z,1014.48
2023-01-31T01:20:02.009Z,1014.44
2023-01-31T01:21:01.627Z,1014.42
2023-01-31T01:22:02.715Z,1014.39
2023-01-31T01:23:02.127Z,1014.42
2023-01-31T01:24:02.749Z,1014.48
2023-01-31T01:25:02.501Z,1014.49
2023-01-31T01:26:02.387Z,1014.52
2023-01-31T01:27:02.918Z,1014.51
2023-01-31T01:29:02.312Z,1014.55
2023-01-31T01:30:02.890Z,1014.53
2023-01-31T01:31:02.840Z,1014.54
2023-01-31T01:32:02.804Z,1014.51
2023-01-31T01:33:02.164Z,1014.54
2023-01-31T01:34:02.536Z,1014.54
2023-01-31T01:35:02.135Z,1014.51
2023-01-31T01:36:02.183Z,1014.51
2023-01-31T01:37:02.212Z,1014.48
2023-01-31T01:38:02.338Z,1014.47
2023-01-31T01:39:02.158Z,1014.42
2023-01-31T01:40:02.248Z,1014.49
2023-01-31T01:41:02.647Z,1014.44
2023-01-31T01:42:02.756Z,1014.45
2023-01-31T01:43:02.407Z,1014.41
2023-01-31T01:44:02.405Z,1014.40
2023-01-31T01:45:02.424Z,1014.45
2023-01-31T01:46:02.525Z,1014.41
2023-01-31T01:47:02.221Z,1014.42
2023-01-31T01:48:01.592Z,1014.50
2023-01-31T01:49:01.813Z,1014.46
2023-01-31T01:50:01.870Z,1014.46
2023-01-31T01:51:02.174Z,1014.53
2023-01-31T01:52:02.290Z,1014.45
2023-01-31T01:53:02.296Z,1014.46
2023-01-31T01:54:02.545Z,1014.45
2023-01-31T01:55:02.785Z,1014.48
2023-01-31T01:56:02.341Z,1014.52
2023-01-31T01:57:02.193Z,1014.47
2023-01-31T01:58:01.959Z,1014.47
2023-01-31T01:59:01.599Z,1014.46
2023-01-31T02:00:02.006Z,1014.52
2023-01-31T02:01:01.646Z,1014.48
2023-01-31T02:02:02.497Z,1014.42
2023-01-31T02:03:02.266Z,1014.41
2023-01-31T02:04:02.171Z,1014.47
2023-01-31T02:05:02.125Z,1014.42
2023-01-31T02:06:02.258Z,1014.46
2023-01-31T02:07:02.746Z,1014.45
2023-01-31T02:08:02.560Z,1014.45
2023-01-31T02:09:02.163Z,1014.42
2023-01-31T02:10:02.437Z,1014.40
2023-01-31T02:11:02.437Z,1014.46
2023-01-31T02:12:03.334Z,1014.46
2023-01-31T02:13:03.218Z,1014.44
2023-01-31T02:14:03.318Z,1014.32
2023-01-31T02:15:02.777Z,1014.42
2023-01-31T02:16:02.705Z,1014.40
2023-01-31T02:17:02.036Z,1014.38
2023-01-31T02:18:02.355Z,1014.33
2023-01-31T02:19:02.328Z,1014.36
2023-01-31T02:20:02.134Z,1014.35
2023-01-31T02:21:02.203Z,1014.37
2023-01-31T02:22:02.445Z,1014.34
2023-01-31T02:23:02.589Z,1014.32
2023-01-31T02:24:02.304Z,1014.30
2023-01-31T02:25:02.218Z,1014.28
2023-01-31T02:26:02.604Z,1014.31
2023-01-31T02:27:02.113Z,1014.25
2023-01-31T02:28:02.476Z,1014.25
2023-01-31T02:29:02.614Z,1014.30
2023-01-31T02:30:02.637Z,1014.33
2023-01-31T02:31:02.853Z,1014.31
2023-01-31T02:32:02.771Z,1014.34
2023-01-31T02:33:03.245Z,1014.33
2023-01-31T02:34:02.867Z,1014.33
2023-01-31T02:35:02.745Z,1014.37
2023-01-31T02:36:02.968Z,1014.36
2023-01-31T02:37:02.098Z,1014.34
2023-01-31T02:38:02.459Z,1014.31
2023-01-31T02:39:02.429Z,1014.31
2023-01-31T02:40:01.941Z,1014.34
2023-01-31T02:41:02.269Z,1014.39
2023-01-31T02:42:02.066Z,1014.36
2023-01-31T02:43:02.176Z,1014.36
2023-01-31T02:44:01.997Z,1014.29
2023-01-31T02:45:01.970Z,1014.33
2023-01-31T02:46:02.277Z,1014.34
2023-01-31T02:47:02.360Z,1014.37
2023-01-31T02:48:02.358Z,1014.31
2023-01-31T02:49:01.965Z,1014.36
2023-01-31T02:50:02.652Z,1014.33
2023-01-31T02:51:02.196Z,1014.32
2023-01-31T02:52:02.386Z,1014.34
2023-01-31T02:53:02.091Z,1014.30
2023-01-31T02:54:02.513Z,1014.32
2023-01-31T02:55:02.089Z,1014.35
2023-01-31T02:56:02.331Z,1014.32
2023-01-31T02:57:02.289Z,1014.34
2023-01-31T02:58:02.728Z,1014.33
2023-01-31T02:59:02.544Z,1014.33
2023-01-31T03:00:02.933Z,1014.31
2023-01-31T03:01:02.465Z,1014.39
2023-01-31T03:02:02.584Z,1014.42
2023-01-31T03:03:02.851Z,1014.46
2023-01-31T03:04:02.532Z,1014.46
2023-01-31T03:05:02.957Z,1014.47
2023-01-31T03:06:02.634Z,1014.46
2023-01-31T03:07:01.976Z,1014.46
2023-01-31T03:08:01.824Z,1014.45
2023-01-31T03:09:01.701Z,1014.54
2023-01-31T03:10:02.339Z,1014.56
2023-01-31T03:11:02.288Z,1014.52
2023-01-31T03:12:02.081Z,1014.55
2023-01-31T03:13:02.203Z,1014.51
2023-01-31T03:14:02.422Z,1014.53
2023-01-31T03:15:02.424Z,1014.52
2023-01-31T03:16:02.115Z,1014.49
2023-01-31T03:17:02.247Z,1014.56
2023-01-31T03:18:02.431Z,1014.53
2023-01-31T03:19:02.286Z,1014.54
2023-01-31T03:20:02.534Z,1014.46
2023-01-31T03:21:02.083Z,1014.50
2023-01-31T03:22:01.778Z,1014.44
2023-01-31T03:23:02.020Z,1014.43
2023-01-31T03:24:02.109Z,1014.43
2023-01-31T03:25:01.996Z,1014.49
2023-01-31T03:26:02.292Z,1014.56
2023-01-31T03:27:02.999Z,1014.57
2023-01-31T03:28:02.202Z,1014.60
2023-01-31T03:29:02.384Z,1014.60
2023-01-31T03:30:02.337Z,1014.52
2023-01-31T03:31:02.382Z,1014.62
2023-01-31T03:32:02.494Z,1014.61
2023-01-31T03:33:02.374Z,1014.59
2023-01-31T03:34:01.867Z,1014.59
2023-01-31T03:35:02.018Z,1014.52
2023-01-31T03:36:01.877Z,1014.54
2023-01-31T03:37:02.944Z,1014.45
2023-01-31T03:38:03.014Z,1014.46
2023-01-31T03:39:03.031Z,1014.46
2023-01-31T03:40:02.970Z,1014.43
2023-01-31T03:41:02.563Z,1014.40
2023-01-31T03:42:02.650Z,1014.39
2023-01-31T03:43:02.520Z,1014.40
2023-01-31T03:44:02.954Z,1014.38
2023-01-31T03:45:02.445Z,1014.35
2023-01-31T03:46:03.027Z,1014.41
2023-01-31T03:47:01.702Z,1014.37
2023-01-31T03:48:02.104Z,1014.35
2023-01-31T03:49:02.179Z,1014.29
2023-01-31T03:50:01.664Z,1014.34
2023-01-31T03:51:02.157Z,1014.29
2023-01-31T03:52:02.017Z,1014.27
2023-01-31T03:53:02.566Z,1014.30
2023-01-31T03:54:02.397Z,1014.29
2023-01-31T03:55:02.350Z,1014.29
2023-01-31T03:56:02.453Z,1014.29
2023-01-31T03:57:02.116Z,1014.26
2023-01-31T03:58:02.110Z,1014.26
2023-01-31T03:59:02.406Z,1014.30
2023-01-31T04:00:02.643Z,1014.36
2023-01-31T04:01:02.512Z,1014.30
2023-01-31T04:02:02.821Z,1014.29
2023-01-31T04:03:02.716Z,1014.26
2023-01-31T04:04:03.067Z,1014.27
2023-01-31T04:05:02.684Z,1014.22
2023-01-31T04:06:03.142Z,1014.25
2023-01-31T04:07:03.164Z,1014.25
2023-01-31T04:08:03.090Z,1014.17
2023-01-31T04:09:02.768Z,1014.19
2023-01-31T04:10:02.950Z,1014.23
2023-01-31T04:11:02.857Z,1014.22
2023-01-31T04:12:02.816Z,1014.23
2023-01-31T04:13:03.338Z,1014.17
2023-01-31T04:14:03.201Z,1014.22
2023-01-31T04:15:03.020Z,1014.24
2023-01-31T04:16:03.047Z,1014.32
2023-01-31T04:17:03.652Z,1014.31
2023-01-31T04:18:03.372Z,1014.33
2023-01-31T04:19:03.144Z,1014.27
2023-01-31T04:20:03.152Z,1014.21
2023-01-31T04:21:03.310Z,1014.23
2023-01-31T04:22:02.731Z,1014.24
2023-01-31T04:23:03.004Z,1014.25
2023-01-31T04:24:02.690Z,1014.23
2023-01-31T04:25:02.943Z,1014.19
2023-01-31T04:26:03.103Z,1014.25
2023-01-31T04:27:03.582Z,1014.16
2023-01-31T04:28:03.543Z,1014.20
2023-01-31T04:29:03.319Z,1014.22
2023-01-31T04:30:03.477Z,1014.22
2023-01-31T04:31:03.844Z,1014.19
2023-01-31T04:32:03.069Z,1014.19
2023-01-31T04:33:02.859Z,1014.17
2023-01-31T04:34:03.099Z,1014.14
2023-01-31T04:35:02.904Z,1014.22
2023-01-31T04:36:03.201Z,1014.19
2023-01-31T04:37:03.109Z,1014.21
2023-01-31T04:38:03.387Z,1014.28
2023-01-31T04:39:03.210Z,1014.21
2023-01-31T04:40:03.502Z,1014.18
2023-01-31T04:41:03.062Z,1014.11
2023-01-31T04:42:02.512Z,1014.10
2023-01-31T04:43:02.536Z,1014.09
2023-01-31T04:44:02.685Z,1014.07
2023-01-31T04:45:03.166Z,1014.04
2023-01-31T04:46:02.877Z,1014.04
2023-01-31T04:47:03.347Z,1014.09
2023-01-31T04:48:03.242Z,1014.08
2023-01-31T04:49:02.916Z,1014.02
2023-01-31T04:50:03.107Z,1013.96
2023-01-31T04:51:02.963Z,1013.95
2023-01-31T04:52:02.509Z,1013.95
2023-01-31T04:53:02.200Z,1013.96
2023-01-31T04:54:02.138Z,1014.00
2023-01-31T04:55:02.262Z,1013.98
2023-01-31T04:56:02.418Z,1013.91
2023-01-31T04:57:02.795Z,1013.90
2023-01-31T04:58:03.874Z,1013.87
2023-01-31T04:59:02.603Z,1013.86
2023-01-31T05:00:02.511Z,1013.92
2023-01-31T05:01:02.946Z,1013.92
2023-01-31T05:02:03.126Z,1013.94
2023-01-31T05:03:03.331Z,1013.92
2023-01-31T05:04:03.265Z,1013.95
2023-01-31T05:05:03.414Z,1013.87
2023-01-31T05:06:03.109Z,1013.97
2023-01-31T05:07:02.729Z,1013.93
2023-01-31T05:08:02.833Z,1013.99
2023-01-31T05:09:02.570Z,1013.91
2023-01-31T05:10:02.745Z,1013.93
2023-01-31T05:11:04.281Z,1013.88
2023-01-31T05:12:02.561Z,1013.86
2023-01-31T05:13:02.956Z,1013.87
2023-01-31T05:14:02.488Z,1013.84
2023-01-31T05:15:02.568Z,1013.84
2023-01-31T05:16:03.034Z,1013.81
2023-01-31T05:17:03.211Z,1013.78
2023-01-31T05:18:03.340Z,1013.72
2023-01-31T05:19:03.139Z,1013.78
2023-01-31T05:20:04.064Z,1013.81
2023-01-31T05:21:03.993Z,1013.86
2023-01-31T05:22:02.667Z,1013.82
2023-01-31T05:23:03.132Z,1013.72
2023-01-31T05:24:02.713Z,1013.73
2023-01-31T05:25:02.833Z,1013.80
2023-01-31T05:26:03.380Z,1013.81
2023-01-31T05:27:03.509Z,1013.84
2023-01-31T05:28:03.256Z,1013.81
2023-01-31T05:29:03.202Z,1013.75
2023-01-31T05:30:03.104Z,1013.75
2023-01-31T05:31:03.125Z,1013.79
2023-01-31T05:32:04.138Z,1013.77
2023-01-31T05:33:03.075Z,1013.82
2023-01-31T05:34:02.951Z,1013.85
2023-01-31T05:35:03.593Z,1013.81
2023-01-31T05:36:03.689Z,1013.83
2023-01-31T05:37:03.623Z,1013.77
2023-01-31T05:38:03.608Z,1013.79
2023-01-31T05:39:03.590Z,1013.75
2023-01-31T05:40:03.611Z,1013.81
2023-01-31T05:41:03.593Z,1013.75
2023-01-31T05:42:03.127Z,1013.76
2023-01-31T05:43:03.121Z,1013.79
2023-01-31T05:44:02.858Z,1013.86
2023-01-31T05:45:02.813Z,1013.85
2023-01-31T05:46:02.929Z,1013.79
2023-01-31T05:47:03.924Z,1013.81
2023-01-31T05:48:03.582Z,1013.80
2023-01-31T05:49:03.475Z,1013.76
2023-01-31T05:50:03.418Z,1013.70
2023-01-31T05:51:03.657Z,1013.78
2023-01-31T05:52:03.367Z,1013.80
2023-01-31T05:53:03.200Z,1013.78
2023-01-31T05:54:03.039Z,1013.74
2023-01-31T05:55:02.939Z,1013.78
2023-01-31T05:56:03.049Z,1013.76
2023-01-31T05:57:03.315Z,1013.86
2023-01-31T05:58:03.193Z,1013.79
2023-01-31T05:59:03.373Z,1013.72
2023-01-31T06:00:03.278Z,1013.75
2023-01-31T06:01:03.017Z,1013.78
2023-01-31T06:02:02.690Z,1013.78
2023-01-31T06:03:03.120Z,1013.80
2023-01-31T06:04:02.681Z,1013.74
2023-01-31T06:05:02.434Z,1013.73
2023-01-31T06:06:02.192Z,1013.76
2023-01-31T06:07:02.438Z,1013.75
2023-01-31T06:08:02.677Z,1013.76
2023-01-31T06:09:02.261Z,1013.74
2023-01-31T06:10:02.781Z,1013.73
2023-01-31T06:11:02.776Z,1013.77
2023-01-31T06:12:01.858Z,1013.71
2023-01-31T06:13:02.192Z,1013.73
2023-01-31T06:14:01.843Z,1013.68
2023-01-31T06:15:02.151Z,1013.73
2023-01-31T06:16:01.668Z,1013.70
2023-01-31T06:17:02.408Z,1013.72
2023-01-31T06:18:02.675Z,1013.68
2023-01-31T06:19:02.507Z,1013.70
2023-01-31T06:20:02.209Z,1013.72
2023-01-31T06:21:02.102Z,1013.70
2023-01-31T06:22:02.116Z,1013.71
2023-01-31T06:23:01.495Z,1013.72
2023-01-31T06:24:01.965Z,1013.73
2023-01-31T06:25:02.080Z,1013.66
2023-01-31T06:26:01.490Z,1013.75
2023-01-31T06:27:01.972Z,1013.75
2023-01-31T06:28:01.708Z,1013.78
2023-01-31T06:29:01.805Z,1013.75
2023-01-31T06:30:01.849Z,1013.70
2023-01-31T06:31:01.972Z,1013.70
2023-01-31T06:32:01.969Z,1013.63
2023-01-31T06:33:02.275Z,1013.73
2023-01-31T06:34:01.823Z,1013.68
2023-01-31T06:35:02.090Z,1013.67
2023-01-31T06:36:02.135Z,1013.73
2023-01-31T06:37:01.947Z,1013.67
2023-01-31T06:38:02.286Z,1013.56
2023-01-31T06:39:02.075Z,1013.56
2023-01-31T06:40:02.140Z,1013.62
2023-01-31T06:41:02.219Z,1013.60
2023-01-31T06:42:02.444Z,1013.60
2023-01-31T06:43:02.162Z,1013.60
2023-01-31T06:44:02.481Z,1013.54
2023-01-31T06:45:02.395Z,1013.60
2023-01-31T06:46:02.345Z,1013.61
2023-01-31T06:47:02.601Z,1013.62
2023-01-31T06:48:02.888Z,1013.62
2023-01-31T06:49:02.755Z,1013.54
2023-01-31T06:50:02.394Z,1013.54
2023-01-31T06:51:02.487Z,1013.54
2023-01-31T06:52:02.188Z,1013.56
2023-01-31T06:53:02.074Z,1013.55
2023-01-31T06:54:02.441Z,1013.50
2023-01-31T06:55:02.040Z,1013.53
2023-01-31T06:56:01.921Z,1013.52
2023-01-31T06:57:01.895Z,1013.53
2023-01-31T06:58:01.816Z,1013.49
2023-01-31T06:59:02.157Z,1013.50
2023-01-31T07:00:01.999Z,1013.47
2023-01-31T07:01:02.113Z,1013.49
2023-01-31T07:02:01.887Z,1013.46
2023-01-31T07:03:02.483Z,1013.51
2023-01-31T07:04:01.918Z,1013.48
2023-01-31T07:05:02.058Z,1013.53
2023-01-31T07:06:02.237Z,1013.57
2023-01-31T07:07:02.894Z,1013.57
2023-01-31T07:08:02.912Z,1013.62
2023-01-31T07:09:02.948Z,1013.63
2023-01-31T07:10:02.611Z,1013.57
2023-01-31T07:11:03.080Z,1013.60
2023-01-31T07:12:02.209Z,1013.59
2023-01-31T07:13:02.567Z,1013.58
2023-01-31T07:14:02.218Z,1013.65
2023-01-31T07:15:02.126Z,1013.59
2023-01-31T07:16:02.635Z,1013.59
2023-01-31T07:17:02.863Z,1013.54
2023-01-31T07:18:02.696Z,1013.64
2023-01-31T07:19:02.828Z,1013.63
2023-01-31T07:20:02.396Z,1013.57
2023-01-31T07:21:02.494Z,1013.53
2023-01-31T07:22:02.768Z,1013.56
2023-01-31T07:23:02.962Z,1013.54
2023-01-31T07:24:02.566Z,1013.55
2023-01-31T07:25:02.385Z,1013.52
2023-01-31T07:26:02.795Z,1013.61
2023-01-31T07:27:02.783Z,1013.58
2023-01-31T07:28:02.931Z,1013.63
2023-01-31T07:29:02.681Z,1013.65
2023-01-31T07:30:02.682Z,1013.60
2023-01-31T07:31:02.966Z,1013.56
2023-01-31T07:32:02.054Z,1013.56
2023-01-31T07:33:02.333Z,1013.56
2023-01-31T07:34:01.988Z,1013.62
2023-01-31T07:35:02.074Z,1013.59
2023-01-31T07:36:02.527Z,1013.64
2023-01-31T07:37:02.425Z,1013.58
2023-01-31T07:38:02.951Z,1013.61
2023-01-31T07:39:02.441Z,1013.55
2023-01-31T07:40:02.360Z,1013.54
2023-01-31T07:41:02.654Z,1013.57
2023-01-31T07:42:02.480Z,1013.60
2023-01-31T07:43:02.588Z,1013.59
2023-01-31T07:44:02.856Z,1013.67
2023-01-31T07:45:13.195Z,1013.70
2023-01-31T07:46:02.767Z,1013.71
2023-01-31T07:47:03.268Z,1013.72
2023-01-31T07:48:02.713Z,1013.71
2023-01-31T07:49:03.018Z,1013.71
2023-01-31T07:50:02.704Z,1013.74
2023-01-31T07:51:03.079Z,1013.68
2023-01-31T07:52:01.963Z,1013.65
2023-01-31T07:53:02.072Z,1013.59
2023-01-31T07:54:01.971Z,1013.62
2023-01-31T07:55:02.223Z,1013.62
2023-01-31T07:56:01.785Z,1013.70
2023-01-31T07:57:02.707Z,1013.66
2023-01-31T07:58:02.715Z,1013.62
2023-01-31T07:59:02.460Z,1013.53
2023-01-31T08:00:02.531Z,1013.53
2023-01-31T08:01:02.331Z,1013.47
2023-01-31T08:02:01.792Z,1013.44
2023-01-31T08:03:01.734Z,1013.35
2023-01-31T08:04:18.281Z,1013.37
2023-01-31T08:05:01.912Z,1013.38
2023-01-31T08:06:02.020Z,1013.26
2023-01-31T08:07:01.968Z,1013.28
2023-01-31T08:08:02.322Z,1013.22
2023-01-31T08:09:02.010Z,1013.23
2023-01-31T08:10:02.204Z,1013.25
2023-01-31T08:11:01.908Z,1013.28
2023-01-31T08:12:02.341Z,1013.30
2023-01-31T08:13:02.016Z,1013.31
2023-01-31T08:14:02.510Z,1013.25
2023-01-31T08:15:02.207Z,1013.21
2023-01-31T08:16:02.143Z,1013.27
2023-01-31T08:17:01.873Z,1013.26
2023-01-31T08:18:03.885Z,1013.27
2023-01-31T08:19:01.994Z,1013.23
2023-01-31T08:20:02.004Z,1013.29
2023-01-31T08:21:01.917Z,1013.28
2023-01-31T08:22:01.950Z,1013.26
2023-01-31T08:23:02.248Z,1013.22
2023-01-31T08:24:02.132Z,1013.24
2023-01-31T08:25:02.377Z,1013.30
2023-01-31T08:26:02.065Z,1013.32
2023-01-31T08:27:02.525Z,1013.25
2023-01-31T08:28:02.788Z,1013.31
2023-01-31T08:29:02.202Z,1013.37
2023-01-31T08:30:02.180Z,1013.33
2023-01-31T08:31:08.221Z,1013.32
2023-01-31T08:32:02.044Z,1013.43
2023-01-31T08:33:01.866Z,1013.47
2023-01-31T08:34:02.098Z,1013.46
2023-01-31T08:35:01.941Z,1013.40
2023-01-31T08:36:01.717Z,1013.40
2023-01-31T08:37:02.208Z,1013.42
2023-01-31T08:38:15.619Z,1013.47
2023-01-31T08:39:02.446Z,1013.46
2023-01-31T08:40:02.106Z,1013.44
2023-01-31T08:41:02.416Z,1013.50
2023-01-31T08:42:02.605Z,1013.48
2023-01-31T08:43:02.568Z,1013.54
2023-01-31T08:44:04.522Z,1013.39
2023-01-31T08:45:02.173Z,1013.46
2023-01-31T08:46:02.312Z,1013.41
2023-01-31T08:47:02.375Z,1013.41
2023-01-31T08:48:02.175Z,1013.35
2023-01-31T08:49:02.198Z,1013.39
2023-01-31T08:50:02.502Z,1013.27
2023-01-31T08:51:02.452Z,1013.31
2023-01-31T08:52:01.771Z,1013.28
2023-01-31T08:53:01.502Z,1013.24
2023-01-31T08:54:01.610Z,1013.26
2023-01-31T08:55:01.911Z,1013.19
2023-01-31T08:56:01.364Z,1013.24
2023-01-31T08:57:02.353Z,1013.31
2023-01-31T08:58:02.401Z,1013.37
2023-01-31T08:59:02.035Z,1013.34
2023-01-31T09:00:02.111Z,1013.40
2023-01-31T09:01:02.142Z,1013.35
2023-01-31T09:02:02.191Z,1013.32
2023-01-31T09:03:02.428Z,1013.27
2023-01-31T09:04:02.200Z,1013.23
2023-01-31T09:05:02.352Z,1013.32
2023-01-31T09:06:02.641Z,1013.33
2023-01-31T09:07:02.831Z,1013.38
2023-01-31T09:08:02.902Z,1013.33
2023-01-31T09:09:02.444Z,1013.31
2023-01-31T09:10:02.620Z,1013.36
2023-01-31T09:11:02.585Z,1013.35
2023-01-31T09:12:02.793Z,1013.36
2023-01-31T09:13:02.896Z,1013.35
2023-01-31T09:14:02.862Z,1013.41
2023-01-31T09:15:02.682Z,1013.45
2023-01-31T09:16:02.907Z,1013.43
2023-01-31T09:17:03.180Z,1013.47
2023-01-31T09:18:02.800Z,1013.45
2023-01-31T09:19:03.172Z,1013.44
2023-01-31T09:20:02.946Z,1013.43
2023-01-31T09:21:03.366Z,1013.34
2023-01-31T09:22:02.421Z,1013.30
2023-01-31T09:23:02.379Z,1013.29
2023-01-31T09:24:01.957Z,1013.30
2023-01-31T09:25:01.998Z,1013.31
2023-01-31T09:26:02.283Z,1013.24
2023-01-31T09:27:02.105Z,1013.22
2023-01-31T09:28:02.235Z,1013.15
2023-01-31T09:29:02.545Z,1013.18
2023-01-31T09:30:02.006Z,1013.16
2023-01-31T09:31:02.393Z,1013.21
2023-01-31T09:32:02.723Z,1013.09
2023-01-31T09:33:02.190Z,1013.21
2023-01-31T09:34:02.259Z,1013.20
2023-01-31T09:35:02.553Z,1013.20
2023-01-31T09:36:02.190Z,1013.14
2023-01-31T09:37:02.759Z,1013.15
2023-01-31T09:38:02.901Z,1013.18
2023-01-31T09:39:03.182Z,1013.09
2023-01-31T09:40:03.327Z,1013.09
2023-01-31T09:41:03.309Z,1013.02
2023-01-31T09:42:02.311Z,1012.96
2023-01-31T09:43:02.386Z,1013.01
2023-01-31T09:44:02.695Z,1012.97
2023-01-31T09:45:02.631Z,1012.95
2023-01-31T09:46:02.444Z,1012.92
2023-01-31T09:47:02.608Z,1012.86
2023-01-31T09:48:02.545Z,1012.86
2023-01-31T09:49:03.176Z,1012.81
2023-01-31T09:50:02.908Z,1012.79
2023-01-31T09:51:03.105Z,1012.78
2023-01-31T09:52:02.230Z,1012.74
2023-01-31T09:53:02.420Z,1012.74
2023-01-31T09:54:02.236Z,1012.76
2023-01-31T09:55:02.221Z,1012.76
2023-01-31T09:56:02.114Z,1012.80
2023-01-31T09:57:03.132Z,1012.84
2023-01-31T09:58:02.733Z,1012.81
2023-01-31T09:59:02.671Z,1012.79
2023-01-31T10:00:03.027Z,1012.83
2023-01-31T10:01:02.952Z,1012.80
2023-01-31T10:02:02.120Z,1012.82
2023-01-31T10:03:02.211Z,1012.87
2023-01-31T10:04:02.644Z,1012.86
2023-01-31T10:05:02.304Z,1012.81
2023-01-31T10:06:02.340Z,1012.76
2023-01-31T10:07:03.209Z,1012.83
2023-01-31T10:08:03.218Z,1012.81
2023-01-31T10:09:02.942Z,1012.80
2023-01-31T10:10:02.814Z,1012.84
2023-01-31T10:11:02.636Z,1012.84
2023-01-31T10:12:02.212Z,1012.83
2023-01-31T10:13:02.431Z,1012.80
2023-01-31T10:14:02.504Z,1012.82
2023-01-31T10:15:02.293Z,1012.75
2023-01-31T10:16:02.821Z,1012.69
2023-01-31T10:17:02.991Z,1012.73
2023-01-31T10:18:03.081Z,1012.72
2023-01-31T10:19:03.124Z,1012.71
2023-01-31T10:20:02.892Z,1012.70
2023-01-31T10:21:05.102Z,1012.63
2023-01-31T10:22:02.624Z,1012.65
2023-01-31T10:23:02.640Z,1012.66
2023-01-31T10:24:02.261Z,1012.67
2023-01-31T10:25:02.122Z,1012.61
2023-01-31T10:26:02.754Z,1012.62
2023-01-31T10:27:03.283Z,1012.56
2023-01-31T10:28:03.272Z,1012.55
2023-01-31T10:29:03.064Z,1012.67
2023-01-31T10:30:03.089Z,1012.59
2023-01-31T10:31:03.123Z,1012.62
2023-01-31T10:32:02.441Z,1012.62
2023-01-31T10:33:02.287Z,1012.58
2023-01-31T10:34:02.292Z,1012.53
2023-01-31T10:35:02.371Z,1012.57
2023-01-31T10:36:02.007Z,1012.49
2023-01-31T10:37:02.190Z,1012.47
2023-01-31T10:38:02.168Z,1012.48
2023-01-31T10:39:02.463Z,1012.46
2023-01-31T10:40:02.210Z,1012.46
2023-01-31T10:41:02.377Z,1012.55
2023-01-31T10:42:02.687Z,1012.54
2023-01-31T10:43:02.961Z,1012.49
2023-01-31T10:44:02.572Z,1012.54
2023-01-31T10:45:02.773Z,1012.51
2023-01-31T10:46:03.134Z,1012.50
2023-01-31T10:47:02.345Z,1012.51
2023-01-31T10:48:02.303Z,1012.49
2023-01-31T10:49:02.377Z,1012.49
2023-01-31T10:50:02.298Z,1012.46
2023-01-31T10:51:02.331Z,1012.42
2023-01-31T10:52:02.721Z,1012.44
2023-01-31T10:53:02.550Z,1012.49
2023-01-31T10:54:02.925Z,1012.39
2023-01-31T10:55:02.972Z,1012.41
2023-01-31T10:56:03.087Z,1012.31
2023-01-31T10:57:02.055Z,1012.31
2023-01-31T10:58:02.433Z,1012.34
2023-01-31T10:59:02.179Z,1012.26
2023-01-31T11:00:02.244Z,1012.19
2023-01-31T11:01:02.450Z,1012.16
2023-01-31T11:02:03.548Z,1012.11
2023-01-31T11:03:03.150Z,1012.11
2023-01-31T11:04:03.223Z,1012.07
2023-01-31T11:05:03.546Z,1012.05
2023-01-31T11:06:03.279Z,1012.06
2023-01-31T11:07:02.752Z,1012.09
2023-01-31T11:08:02.862Z,1012.09
2023-01-31T11:09:03.176Z,1012.04
2023-01-31T11:10:02.764Z,1012.05
2023-01-31T11:11:02.665Z,1012.08
2023-01-31T11:12:03.155Z,1012.06
2023-01-31T11:13:03.117Z,1011.96
2023-01-31T11:14:02.795Z,1011.92
2023-01-31T11:15:02.603Z,1011.83
2023-01-31T11:16:02.916Z,1011.81
2023-01-31T11:17:02.763Z,1011.81
2023-01-31T11:18:02.618Z,1011.75
2023-01-31T11:19:02.910Z,1011.77
2023-01-31T11:20:02.666Z,1011.81
2023-01-31T11:21:03.027Z,1011.75
2023-01-31T11:22:02.880Z,1011.73
2023-01-31T11:23:02.757Z,1011.70
2023-01-31T11:24:02.917Z,1011.65
2023-01-31T11:25:02.975Z,1011.72
2023-01-31T11:26:02.866Z,1011.70
2023-01-31T11:27:03.383Z,1011.67
2023-01-31T11:28:03.325Z,1011.61
2023-01-31T11:29:03.171Z,1011.54
2023-01-31T11:30:03.000Z,1011.42
2023-01-31T11:31:02.956Z,1011.38
2023-01-31T11:32:03.109Z,1011.35
2023-01-31T11:33:02.965Z,1011.35
2023-01-31T11:34:02.697Z,1011.32
2023-01-31T11:35:02.421Z,1011.31
2023-01-31T11:36:02.827Z,1011.25
2023-01-31T11:37:02.355Z,1011.28
2023-01-31T11:38:02.400Z,1011.23
2023-01-31T11:39:02.460Z,1011.21
2023-01-31T11:40:02.368Z,1011.07
2023-01-31T11:41:02.216Z,1011.11
2023-01-31T11:42:02.930Z,1011.05
2023-01-31T11:43:02.818Z,1011.09
2023-01-31T11:44:02.834Z,1010.96
2023-01-31T11:45:03.140Z,1011.02
2023-01-31T11:46:02.987Z,1010.95
2023-01-31T11:47:02.626Z,1010.94
2023-01-31T11:48:02.520Z,1010.97
2023-01-31T11:49:02.734Z,1010.98
2023-01-31T11:50:02.812Z,1010.98
2023-01-31T11:51:02.742Z,1010.95
2023-01-31T11:52:02.635Z,1010.95
2023-01-31T11:53:02.925Z,1010.98
2023-01-31T11:54:02.719Z,1010.93
2023-01-31T11:55:02.748Z,1010.86
2023-01-31T11:56:02.894Z,1010.81
2023-01-31T11:57:02.953Z,1010.82
2023-01-31T11:58:02.737Z,1010.74
2023-01-31T11:59:02.783Z,1010.75
2023-01-31T12:00:02.905Z,1010.75
2023-01-31T12:01:02.906Z,1010.75
2023-01-31T12:02:02.519Z,1010.77
2023-01-31T12:03:02.004Z,1010.77
2023-01-31T12:04:04.118Z,1010.73
2023-01-31T12:05:02.438Z,1010.66
2023-01-31T12:06:02.432Z,1010.71